sensor_id;sensor_type;location;lat;lon;timestamp;pressure;altitude;pressure_sealevel;temperature;humidity
80585;BME280;70137;56.482;9.154;2023-11-19T00:00:06;100962.09;;;3.44;96.02
80585;BME280;70137;56.482;9.154;2023-11-19T00:02:36;100959.41;;;3.46;95.84
80585;BME280;70137;56.482;9.154;2023-11-19T00:05:02;100949.16;;;3.46;96.02
80585;BME280;70137;56.482;9.154;2023-11-19T00:07:27;100945.66;;;3.47;96.05
80585;BME280;70137;56.482;9.154;2023-11-19T00:09:52;100929.41;;;3.48;95.95
80585;BME280;70137;56.482;9.154;2023-11-19T00:12:20;100931.13;;;3.48;95.22
80585;BME280;70137;56.482;9.154;2023-11-19T00:14:46;100919.13;;;3.48;96.00
80585;BME280;70137;56.482;9.154;2023-11-19T00:17:11;100911.44;;;3.48;96.47
80585;BME280;70137;56.482;9.154;2023-11-19T00:19:36;100913.09;;;3.49;96.12
80585;BME280;70137;56.482;9.154;2023-11-19T00:22:02;100907.94;;;3.49;96.58
80585;BME280;70137;56.482;9.154;2023-11-19T00:24:29;100911.22;;;3.51;97.04
80585;BME280;70137;56.482;9.154;2023-11-19T00:26:55;100897.47;;;3.52;96.24
80585;BME280;70137;56.482;9.154;2023-11-19T00:29:21;100893.16;;;3.53;96.42
80585;BME280;70137;56.482;9.154;2023-11-19T00:31:47;100893.97;;;3.53;96.92
80585;BME280;70137;56.482;9.154;2023-11-19T00:34:12;100893.03;;;3.54;97.46
80585;BME280;70137;56.482;9.154;2023-11-19T00:36:38;100889.53;;;3.55;97.11
80585;BME280;70137;56.482;9.154;2023-11-19T00:39:04;100880.22;;;3.54;97.33
80585;BME280;70137;56.482;9.154;2023-11-19T00:41:30;100876.72;;;3.55;96.80
80585;BME280;70137;56.482;9.154;2023-11-19T00:43:56;100869.84;;;3.56;97.79
80585;BME280;70137;56.482;9.154;2023-11-19T00:46:21;100859.50;;;3.57;97.74
80585;BME280;70137;56.482;9.154;2023-11-19T00:48:46;100844.94;;;3.58;97.81
80585;BME280;70137;56.482;9.154;2023-11-19T00:51:12;100832.13;;;3.58;98.12
80585;BME280;70137;56.482;9.154;2023-11-19T00:53:38;100833.88;;;3.57;97.63
80585;BME280;70137;56.482;9.154;2023-11-19T00:56:03;100827.81;;;3.58;98.72
80585;BME280;70137;56.482;9.154;2023-11-19T00:58:29;100824.31;;;3.59;97.66
80585;BME280;70137;56.482;9.154;2023-11-19T01:00:54;100813.13;;;3.60;98.41
80585;BME280;70137;56.482;9.154;2023-11-19T01:03:19;100805.44;;;3.60;98.34
80585;BME280;70137;56.482;9.154;2023-11-19T01:05:45;100797.75;;;3.60;97.96
80585;BME280;70137;56.482;9.154;2023-11-19T01:08:12;100794.25;;;3.61;98.94
80585;BME280;70137;56.482;9.154;2023-11-19T01:10:37;100788.31;;;3.61;99.12
80585;BME280;70137;56.482;9.154;2023-11-19T01:13:03;100783.19;;;3.61;98.51
80585;BME280;70137;56.482;9.154;2023-11-19T01:15:33;100771.19;;;3.61;98.99
80585;BME280;70137;56.482;9.154;2023-11-19T01:17:59;100765.13;;;3.62;99.19
80585;BME280;70137;56.482;9.154;2023-11-19T01:20:24;100750.53;;;3.63;99.51
80585;BME280;70137;56.482;9.154;2023-11-19T01:22:50;100744.59;;;3.62;98.66
80585;BME280;70137;56.482;9.154;2023-11-19T01:25:16;100741.09;;;3.63;100.00
80585;BME280;70137;56.482;9.154;2023-11-19T01:27:41;100721.41;;;3.64;99.56
80585;BME280;70137;56.482;9.154;2023-11-19T01:30:07;100719.53;;;3.66;100.00
80585;BME280;70137;56.482;9.154;2023-11-19T01:32:35;100710.09;;;3.66;99.88
80585;BME280;70137;56.482;9.154;2023-11-19T01:35:02;100699.84;;;3.66;99.94
80585;BME280;70137;56.482;9.154;2023-11-19T01:37:29;100697.19;;;3.68;100.00
80585;BME280;70137;56.482;9.154;2023-11-19T01:39:54;100688.69;;;3.67;100.00
80585;BME280;70137;56.482;9.154;2023-11-19T01:42:19;100683.56;;;3.67;100.00
80585;BME280;70137;56.482;9.154;2023-11-19T01:44:56;100682.50;;;3.70;99.67
80585;BME280;70137;56.482;9.154;2023-11-19T01:47:23;100680.75;;;3.70;100.00
80585;BME280;70137;56.482;9.154;2023-11-19T01:49:50;100682.38;;;3.71;100.00
80585;BME280;70137;56.482;9.154;2023-11-19T01:52:15;100678.88;;;3.72;100.00
80585;BME280;70137;56.482;9.154;2023-11-19T01:54:41;100677.00;;;3.74;100.00
80585;BME280;70137;56.482;9.154;2023-11-19T01:57:06;100676.19;;;3.74;100.00
80585;BME280;70137;56.482;9.154;2023-11-19T01:59:32;100681.19;;;3.76;100.00
80585;BME280;70137;56.482;9.154;2023-11-19T02:01:57;100667.44;;;3.77;100.00
80585;BME280;70137;56.482;9.154;2023-11-19T02:04:23;100658.09;;;3.76;100.00
80585;BME280;70137;56.482;9.154;2023-11-19T02:06:50;100656.34;;;3.76;100.00
80585;BME280;70137;56.482;9.154;2023-11-19T02:09:17;100637.50;;;3.77;100.00
80585;BME280;70137;56.482;9.154;2023-11-19T02:11:45;100634.13;;;3.77;100.00
80585;BME280;70137;56.482;9.154;2023-11-19T02:14:13;100634.00;;;3.78;100.00
80585;BME280;70137;56.482;9.154;2023-11-19T02:16:39;100627.13;;;3.79;100.00
80585;BME280;70137;56.482;9.154;2023-11-19T02:19:04;100622.00;;;3.79;100.00
80585;BME280;70137;56.482;9.154;2023-11-19T02:21:31;100609.97;;;3.79;100.00
80585;BME280;70137;56.482;9.154;2023-11-19T02:23:56;100603.22;;;3.78;100.00
80585;BME280;70137;56.482;9.154;2023-11-19T02:26:29;100590.41;;;3.78;100.00
80585;BME280;70137;56.482;9.154;2023-11-19T02:28:56;100590.53;;;3.77;100.00
80585;BME280;70137;56.482;9.154;2023-11-19T02:31:21;100582.84;;;3.77;100.00
80585;BME280;70137;56.482;9.154;2023-11-19T02:33:48;100576.88;;;3.76;100.00
80585;BME280;70137;56.482;9.154;2023-11-19T02:36:15;100571.75;;;3.76;100.00
80585;BME280;70137;56.482;9.154;2023-11-19T02:38:40;100552.06;;;3.77;100.00
80585;BME280;70137;56.482;9.154;2023-11-19T02:41:08;100553.00;;;3.76;100.00
80585;BME280;70137;56.482;9.154;2023-11-19T02:43:36;100550.44;;;3.76;100.00
80585;BME280;70137;56.482;9.154;2023-11-19T02:46:03;100536.69;;;3.77;100.00
80585;BME280;70137;56.482;9.154;2023-11-19T02:48:32;100526.31;;;3.78;100.00
80585;BME280;70137;56.482;9.154;2023-11-19T02:50:57;100511.06;;;3.77;100.00
80585;BME280;70137;56.482;9.154;2023-11-19T02:53:23;100505.94;;;3.77;100.00
80585;BME280;70137;56.482;9.154;2023-11-19T02:55:49;100509.41;;;3.76;100.00
80585;BME280;70137;56.482;9.154;2023-11-19T02:58:16;100511.06;;;3.77;100.00
80585;BME280;70137;56.482;9.154;2023-11-19T03:00:49;100511.06;;;3.77;100.00
80585;BME280;70137;56.482;9.154;2023-11-19T03:03:22;100503.38;;;3.77;100.00
80585;BME280;70137;56.482;9.154;2023-11-19T03:05:51;100498.91;;;3.79;100.00
80585;BME280;70137;56.482;9.154;2023-11-19T03:08:16;100493.78;;;3.79;100.00
80585;BME280;70137;56.482;9.154;2023-11-19T03:10:42;100483.53;;;3.79;100.00
80585;BME280;70137;56.482;9.154;2023-11-19T03:13:12;100483.53;;;3.79;100.00
80585;BME280;70137;56.482;9.154;2023-11-19T03:15:42;100476.78;;;3.78;100.00
80585;BME280;70137;56.482;9.154;2023-11-19T03:18:08;100480.97;;;3.79;100.00
80585;BME280;70137;56.482;9.154;2023-11-19T03:20:33;100467.34;;;3.78;100.00
80585;BME280;70137;56.482;9.154;2023-11-19T03:22:58;100470.72;;;3.79;100.00
80585;BME280;70137;56.482;9.154;2023-11-19T03:25:25;100470.72;;;3.79;100.00
80585;BME280;70137;56.482;9.154;2023-11-19T03:27:52;100447.63;;;3.79;100.00
80585;BME280;70137;56.482;9.154;2023-11-19T03:30:18;100456.16;;;3.79;100.00
80585;BME280;70137;56.482;9.154;2023-11-19T03:32:44;100454.38;;;3.80;100.00
80585;BME280;70137;56.482;9.154;2023-11-19T03:35:09;100446.69;;;3.80;100.00
80585;BME280;70137;56.482;9.154;2023-11-19T03:37:34;100444.13;;;3.80;100.00
80585;BME280;70137;56.482;9.154;2023-11-19T03:40:00;100445.75;;;3.81;100.00
80585;BME280;70137;56.482;9.154;2023-11-19T03:42:26;100436.44;;;3.80;100.00
80585;BME280;70137;56.482;9.154;2023-11-19T03:44:52;100434.69;;;3.80;100.00
80585;BME280;70137;56.482;9.154;2023-11-19T03:47:18;100425.38;;;3.79;100.00
80585;BME280;70137;56.482;9.154;2023-11-19T03:49:48;100424.44;;;3.80;100.00
80585;BME280;70137;56.482;9.154;2023-11-19T03:52:13;100414.31;;;3.79;100.00
80585;BME280;70137;56.482;9.154;2023-11-19T03:54:39;100408.25;;;3.80;100.00
80585;BME280;70137;56.482;9.154;2023-11-19T03:57:04;100400.41;;;3.81;100.00
80585;BME280;70137;56.482;9.154;2023-11-19T03:59:30;100400.41;;;3.81;100.00
80585;BME280;70137;56.482;9.154;2023-11-19T04:01:55;100388.41;;;3.82;100.00
80585;BME280;70137;56.482;9.154;2023-11-19T04:04:21;100377.47;;;3.80;100.00
80585;BME280;70137;56.482;9.154;2023-11-19T04:06:47;100379.78;;;3.83;100.00
80585;BME280;70137;56.482;9.154;2023-11-19T04:09:12;100374.66;;;3.83;100.00
80585;BME280;70137;56.482;9.154;2023-11-19T04:11:37;100373.69;;;3.84;100.00
80585;BME280;70137;56.482;9.154;2023-11-19T04:14:03;100358.31;;;3.84;100.00
80585;BME280;70137;56.482;9.154;2023-11-19T04:16:28;100360.88;;;3.84;100.00
80585;BME280;70137;56.482;9.154;2023-11-19T04:18:54;100363.44;;;3.84;100.00
80585;BME280;70137;56.482;9.154;2023-11-19T04:21:19;100358.19;;;3.85;100.00
80585;BME280;70137;56.482;9.154;2023-11-19T04:23:44;100340.22;;;3.85;100.00
80585;BME280;70137;56.482;9.154;2023-11-19T04:26:10;100337.66;;;3.85;100.00
80585;BME280;70137;56.482;9.154;2023-11-19T04:28:35;100332.53;;;3.85;100.00
80585;BME280;70137;56.482;9.154;2023-11-19T04:31:00;100339.19;;;3.88;100.00
80585;BME280;70137;56.482;9.154;2023-11-19T04:33:26;100338.38;;;3.87;100.00
80585;BME280;70137;56.482;9.154;2023-11-19T04:35:51;100334.88;;;3.88;100.00
80585;BME280;70137;56.482;9.154;2023-11-19T04:38:16;100324.63;;;3.88;100.00
80585;BME280;70137;56.482;9.154;2023-11-19T04:40:42;100319.47;;;3.88;100.00
80585;BME280;70137;56.482;9.154;2023-11-19T04:43:07;100317.72;;;3.89;100.00
80585;BME280;70137;56.482;9.154;2023-11-19T04:45:32;100307.34;;;3.90;100.00
80585;BME280;70137;56.482;9.154;2023-11-19T04:47:58;100303.97;;;3.90;100.00
80585;BME280;70137;56.482;9.154;2023-11-19T04:50:23;100298.84;;;3.90;100.00
80585;BME280;70137;56.482;9.154;2023-11-19T04:52:51;100294.66;;;3.89;100.00
80585;BME280;70137;56.482;9.154;2023-11-19T04:55:16;100289.53;;;3.89;100.00
80585;BME280;70137;56.482;9.154;2023-11-19T04:57:41;100282.78;;;3.88;100.00
80585;BME280;70137;56.482;9.154;2023-11-19T05:00:08;100283.72;;;3.87;100.00
80585;BME280;70137;56.482;9.154;2023-11-19T05:02:36;100274.38;;;3.86;100.00
80585;BME280;70137;56.482;9.154;2023-11-19T05:05:01;100273.56;;;3.85;100.00
80585;BME280;70137;56.482;9.154;2023-11-19T05:07:28;100267.63;;;3.85;100.00
80585;BME280;70137;56.482;9.154;2023-11-19T05:09:54;100263.44;;;3.84;100.00
80585;BME280;70137;56.482;9.154;2023-11-19T05:12:19;100259.25;;;3.83;100.00
80585;BME280;70137;56.482;9.154;2023-11-19T05:14:45;100244.69;;;3.83;100.00
80585;BME280;70137;56.482;9.154;2023-11-19T05:17:14;100243.06;;;3.82;100.00
80585;BME280;70137;56.482;9.154;2023-11-19T05:19:40;100242.25;;;3.82;100.00
80585;BME280;70137;56.482;9.154;2023-11-19T05:22:05;100234.56;;;3.82;100.00
80585;BME280;70137;56.482;9.154;2023-11-19T05:24:31;100229.59;;;3.80;100.00
80585;BME280;70137;56.482;9.154;2023-11-19T05:26:56;100242.41;;;3.80;100.00
80585;BME280;70137;56.482;9.154;2023-11-19T05:29:23;100235.50;;;3.81;100.00
80585;BME280;70137;56.482;9.154;2023-11-19T05:31:49;100238.88;;;3.81;100.00
80585;BME280;70137;56.482;9.154;2023-11-19T05:34:14;100241.31;;;3.83;100.00
80585;BME280;70137;56.482;9.154;2023-11-19T05:36:40;100242.25;;;3.82;100.00
80585;BME280;70137;56.482;9.154;2023-11-19T05:39:05;100242.94;;;3.84;100.00
80585;BME280;70137;56.482;9.154;2023-11-19T05:41:31;100239.44;;;3.85;100.00
80585;BME280;70137;56.482;9.154;2023-11-19T05:43:56;100247.13;;;3.85;100.00
80585;BME280;70137;56.482;9.154;2023-11-19T05:46:21;100246.06;;;3.87;100.00
80585;BME280;70137;56.482;9.154;2023-11-19T05:48:48;100257.94;;;3.88;100.00
80585;BME280;70137;56.482;9.154;2023-11-19T05:51:13;100260.38;;;3.90;100.00
80585;BME280;70137;56.482;9.154;2023-11-19T05:53:40;100251.72;;;3.91;100.00
80585;BME280;70137;56.482;9.154;2023-11-19T05:56:06;100255.78;;;3.93;100.00
80585;BME280;70137;56.482;9.154;2023-11-19T05:58:34;100256.59;;;3.94;100.00
80585;BME280;70137;56.482;9.154;2023-11-19T06:01:01;100242.81;;;3.95;100.00
80585;BME280;70137;56.482;9.154;2023-11-19T06:03:26;100252.16;;;3.96;100.00
80585;BME280;70137;56.482;9.154;2023-11-19T06:05:53;100237.44;;;3.98;100.00
80585;BME280;70137;56.482;9.154;2023-11-19T06:08:19;100233.94;;;3.99;100.00
80585;BME280;70137;56.482;9.154;2023-11-19T06:10:46;100225.28;;;4.00;100.00
80585;BME280;70137;56.482;9.154;2023-11-19T06:13:12;100225.28;;;4.00;100.00
80585;BME280;70137;56.482;9.154;2023-11-19T06:15:41;100222.72;;;4.00;100.00
80585;BME280;70137;56.482;9.154;2023-11-19T06:18:06;100220.16;;;4.00;100.00
80585;BME280;70137;56.482;9.154;2023-11-19T06:20:32;100223.41;;;4.02;100.00
80585;BME280;70137;56.482;9.154;2023-11-19T06:22:58;100218.28;;;4.02;100.00
80585;BME280;70137;56.482;9.154;2023-11-19T06:25:24;100214.75;;;4.03;100.00
80585;BME280;70137;56.482;9.154;2023-11-19T06:27:50;100213.13;;;4.02;100.00
80585;BME280;70137;56.482;9.154;2023-11-19T06:30:16;100208.81;;;4.02;100.00
80585;BME280;70137;56.482;9.154;2023-11-19T06:32:41;100201.00;;;4.04;100.00
80585;BME280;70137;56.482;9.154;2023-11-19T06:35:07;100194.25;;;4.03;100.00
80585;BME280;70137;56.482;9.154;2023-11-19T06:37:32;100194.25;;;4.03;100.00
80585;BME280;70137;56.482;9.154;2023-11-19T06:39:58;100188.31;;;4.02;100.00
80585;BME280;70137;56.482;9.154;2023-11-19T06:42:24;100191.00;;;4.01;100.00
80585;BME280;70137;56.482;9.154;2023-11-19T06:44:49;100189.25;;;4.01;100.00
80585;BME280;70137;56.482;9.154;2023-11-19T06:47:15;100189.38;;;4.00;100.00
80585;BME280;70137;56.482;9.154;2023-11-19T06:49:40;100191.94;;;4.00;100.00
80585;BME280;70137;56.482;9.154;2023-11-19T06:52:05;100196.13;;;4.01;100.00
80585;BME280;70137;56.482;9.154;2023-11-19T06:54:31;100199.66;;;4.00;100.00
80585;BME280;70137;56.482;9.154;2023-11-19T06:56:56;100192.91;;;3.99;100.00
80585;BME280;70137;56.482;9.154;2023-11-19T06:59:23;100203.16;;;3.99;100.00
80585;BME280;70137;56.482;9.154;2023-11-19T07:01:48;100195.59;;;3.97;100.00
80585;BME280;70137;56.482;9.154;2023-11-19T07:04:13;100205.06;;;3.97;100.00
80585;BME280;70137;56.482;9.154;2023-11-19T07:06:39;100194.91;;;3.95;100.00
80585;BME280;70137;56.482;9.154;2023-11-19T07:09:09;100197.75;;;3.92;100.00
80585;BME280;70137;56.482;9.154;2023-11-19T07:11:41;100191.81;;;3.92;100.00
80585;BME280;70137;56.482;9.154;2023-11-19T07:14:07;100186.69;;;3.92;100.00
80585;BME280;70137;56.482;9.154;2023-11-19T07:16:33;100179.13;;;3.90;100.00
80585;BME280;70137;56.482;9.154;2023-11-19T07:19:02;100172.50;;;3.88;100.00
80585;BME280;70137;56.482;9.154;2023-11-19T07:21:28;100170.91;;;3.87;100.00
80585;BME280;70137;56.482;9.154;2023-11-19T07:23:56;100177.78;;;3.86;100.00
80585;BME280;70137;56.482;9.154;2023-11-19T07:26:22;100176.94;;;3.86;100.00
80585;BME280;70137;56.482;9.154;2023-11-19T07:28:49;100176.94;;;3.86;100.00
80585;BME280;70137;56.482;9.154;2023-11-19T07:31:14;100173.56;;;3.85;100.00
80585;BME280;70137;56.482;9.154;2023-11-19T07:33:40;100165.34;;;3.82;100.00
80585;BME280;70137;56.482;9.154;2023-11-19T07:36:09;100155.09;;;3.82;100.00
80585;BME280;70137;56.482;9.154;2023-11-19T07:38:35;100156.97;;;3.80;100.00
80585;BME280;70137;56.482;9.154;2023-11-19T07:41:01;100155.38;;;3.79;100.00
80585;BME280;70137;56.482;9.154;2023-11-19T07:43:26;100152.00;;;3.78;100.00
80585;BME280;70137;56.482;9.154;2023-11-19T07:45:52;100161.53;;;3.76;100.00
80585;BME280;70137;56.482;9.154;2023-11-19T07:48:17;100148.88;;;3.74;100.00
80585;BME280;70137;56.482;9.154;2023-11-19T07:50:48;100143.75;;;3.74;100.00
80585;BME280;70137;56.482;9.154;2023-11-19T07:53:15;100137.81;;;3.74;100.00
80585;BME280;70137;56.482;9.154;2023-11-19T07:55:41;100134.56;;;3.72;100.00
80585;BME280;70137;56.482;9.154;2023-11-19T07:58:06;100130.38;;;3.71;100.00
80585;BME280;70137;56.482;9.154;2023-11-19T08:00:31;100120.28;;;3.69;100.00
80585;BME280;70137;56.482;9.154;2023-11-19T08:02:57;100130.53;;;3.69;100.00
80585;BME280;70137;56.482;9.154;2023-11-19T08:05:22;100118.66;;;3.68;100.00
80585;BME280;70137;56.482;9.154;2023-11-19T08:07:50;100124.59;;;3.69;100.00
80585;BME280;70137;56.482;9.154;2023-11-19T08:10:17;100126.34;;;3.68;100.00
80585;BME280;70137;56.482;9.154;2023-11-19T08:12:42;100111.91;;;3.67;100.00
80585;BME280;70137;56.482;9.154;2023-11-19T08:15:08;100111.91;;;3.67;100.00
80585;BME280;70137;56.482;9.154;2023-11-19T08:17:34;100112.84;;;3.66;100.00
80585;BME280;70137;56.482;9.154;2023-11-19T08:19:59;100109.47;;;3.66;100.00
80585;BME280;70137;56.482;9.154;2023-11-19T08:22:25;100113.78;;;3.65;100.00
80585;BME280;70137;56.482;9.154;2023-11-19T08:24:51;100102.72;;;3.65;100.00
80585;BME280;70137;56.482;9.154;2023-11-19T08:27:17;100108.66;;;3.65;100.00
80585;BME280;70137;56.482;9.154;2023-11-19T08:29:42;100111.34;;;3.64;100.00
80585;BME280;70137;56.482;9.154;2023-11-19T08:32:07;100107.84;;;3.65;100.00
80585;BME280;70137;56.482;9.154;2023-11-19T08:34:33;100101.09;;;3.64;100.00
80585;BME280;70137;56.482;9.154;2023-11-19T08:36:59;100107.84;;;3.65;100.00
80585;BME280;70137;56.482;9.154;2023-11-19T08:39:24;100106.22;;;3.64;100.00
80585;BME280;70137;56.482;9.154;2023-11-19T08:41:50;100104.47;;;3.64;100.00
80585;BME280;70137;56.482;9.154;2023-11-19T08:44:16;100102.84;;;3.63;100.00
80585;BME280;70137;56.482;9.154;2023-11-19T08:46:48;100096.78;;;3.64;100.00
80585;BME280;70137;56.482;9.154;2023-11-19T08:49:14;100100.97;;;3.65;100.00
80585;BME280;70137;56.482;9.154;2023-11-19T08:51:39;100098.69;;;3.62;100.00
80585;BME280;70137;56.482;9.154;2023-11-19T08:54:05;100095.97;;;3.64;100.00
80585;BME280;70137;56.482;9.154;2023-11-19T08:56:30;100092.59;;;3.63;100.00
80585;BME280;70137;56.482;9.154;2023-11-19T08:58:58;100102.72;;;3.65;100.00
80585;BME280;70137;56.482;9.154;2023-11-19T09:01:23;100096.66;;;3.66;100.00
80585;BME280;70137;56.482;9.154;2023-11-19T09:03:50;100094.88;;;3.66;100.00
80585;BME280;70137;56.482;9.154;2023-11-19T09:06:15;100103.28;;;3.68;100.00
80585;BME280;70137;56.482;9.154;2023-11-19T09:08:42;100099.78;;;3.69;100.00
80585;BME280;70137;56.482;9.154;2023-11-19T09:11:07;100104.75;;;3.71;100.00
80585;BME280;70137;56.482;9.154;2023-11-19T09:13:34;100113.25;;;3.71;100.00
80585;BME280;70137;56.482;9.154;2023-11-19T09:15:59;100114.59;;;3.76;100.00
80585;BME280;70137;56.482;9.154;2023-11-19T09:18:31;100105.84;;;3.78;100.00
80585;BME280;70137;56.482;9.154;2023-11-19T09:20:57;100110.84;;;3.80;100.00
80585;BME280;70137;56.482;9.154;2023-11-19T09:23:23;100100.59;;;3.80;100.00
80585;BME280;70137;56.482;9.154;2023-11-19T09:25:50;100108.81;;;3.83;100.00
80585;BME280;70137;56.482;9.154;2023-11-19T09:28:15;100108.66;;;3.85;100.00
80585;BME280;70137;56.482;9.154;2023-11-19T09:30:40;100106.81;;;3.87;100.00
80585;BME280;70137;56.482;9.154;2023-11-19T09:33:06;100113.41;;;3.89;100.00
80585;BME280;70137;56.482;9.154;2023-11-19T09:35:31;100108.13;;;3.91;100.00
80585;BME280;70137;56.482;9.154;2023-11-19T09:37:56;100108.13;;;3.91;100.00
80585;BME280;70137;56.482;9.154;2023-11-19T09:40:22;100112.31;;;3.92;100.00
80585;BME280;70137;56.482;9.154;2023-11-19T09:42:48;100110.41;;;3.94;100.00
80585;BME280;70137;56.482;9.154;2023-11-19T09:45:15;100113.69;;;3.96;100.00
80585;BME280;70137;56.482;9.154;2023-11-19T09:47:45;100113.53;;;3.97;100.00
80585;BME280;70137;56.482;9.154;2023-11-19T09:50:20;100110.84;;;3.99;100.00
80585;BME280;70137;56.482;9.154;2023-11-19T09:52:46;100103.81;;;4.01;100.00
80585;BME280;70137;56.482;9.154;2023-11-19T09:55:12;100107.03;;;4.03;100.00
80585;BME280;70137;56.482;9.154;2023-11-19T09:57:38;100113.13;;;4.02;100.00
80585;BME280;70137;56.482;9.154;2023-11-19T10:00:05;100107.03;;;4.03;100.00
80585;BME280;70137;56.482;9.154;2023-11-19T10:02:33;100106.09;;;4.04;100.00
80585;BME280;70137;56.482;9.154;2023-11-19T10:05:04;100104.34;;;4.05;99.73
80585;BME280;70137;56.482;9.154;2023-11-19T10:07:31;100105.13;;;4.05;99.71
80585;BME280;70137;56.482;9.154;2023-11-19T10:09:58;100103.28;;;4.07;100.00
80585;BME280;70137;56.482;9.154;2023-11-19T10:12:26;100104.09;;;4.08;100.00
80585;BME280;70137;56.482;9.154;2023-11-19T10:14:51;100087.75;;;4.09;99.96
80585;BME280;70137;56.482;9.154;2023-11-19T10:17:17;100090.16;;;4.10;100.00
80585;BME280;70137;56.482;9.154;2023-11-19T10:19:44;100090.84;;;4.12;100.00
80585;BME280;70137;56.482;9.154;2023-11-19T10:22:10;100090.59;;;4.15;100.00
80585;BME280;70137;56.482;9.154;2023-11-19T10:24:36;100093.81;;;4.17;100.00
80585;BME280;70137;56.482;9.154;2023-11-19T10:27:06;100097.03;;;4.19;99.72
80585;BME280;70137;56.482;9.154;2023-11-19T10:29:39;100092.72;;;4.20;100.00
80585;BME280;70137;56.482;9.154;2023-11-19T10:32:04;100091.78;;;4.21;100.00
80585;BME280;70137;56.482;9.154;2023-11-19T10:34:30;100094.34;;;4.21;100.00
80585;BME280;70137;56.482;9.154;2023-11-19T10:36:55;100095.94;;;4.22;100.00
80585;BME280;70137;56.482;9.154;2023-11-19T10:39:21;100093.38;;;4.22;100.00
80585;BME280;70137;56.482;9.154;2023-11-19T10:41:47;100087.31;;;4.23;99.97
80585;BME280;70137;56.482;9.154;2023-11-19T10:44:12;100091.47;;;4.24;99.91
80585;BME280;70137;56.482;9.154;2023-11-19T10:46:39;100087.84;;;4.26;100.00
80585;BME280;70137;56.482;9.154;2023-11-19T10:49:08;100091.09;;;4.28;99.96
80585;BME280;70137;56.482;9.154;2023-11-19T10:51:33;100090.94;;;4.30;100.00
80585;BME280;70137;56.482;9.154;2023-11-19T10:54:02;100092.41;;;4.32;100.00
80585;BME280;70137;56.482;9.154;2023-11-19T10:56:31;100093.13;;;4.35;100.00
80585;BME280;70137;56.482;9.154;2023-11-19T10:58:59;100088.63;;;4.37;100.00
80585;BME280;70137;56.482;9.154;2023-11-19T11:01:27;100089.31;;;4.39;100.00
80585;BME280;70137;56.482;9.154;2023-11-19T11:03:57;100089.16;;;4.40;100.00
80585;BME280;70137;56.482;9.154;2023-11-19T11:06:26;100077.13;;;4.41;100.00
80585;BME280;70137;56.482;9.154;2023-11-19T11:08:53;100084.56;;;4.44;100.00
80585;BME280;70137;56.482;9.154;2023-11-19T11:11:19;100087.00;;;4.45;100.00
80585;BME280;70137;56.482;9.154;2023-11-19T11:13:47;100093.75;;;4.46;100.00
80585;BME280;70137;56.482;9.154;2023-11-19T11:16:14;100086.84;;;4.47;100.00
80585;BME280;70137;56.482;9.154;2023-11-19T11:18:40;100077.53;;;4.46;100.00
80585;BME280;70137;56.482;9.154;2023-11-19T11:21:12;100079.31;;;4.45;100.00
80585;BME280;70137;56.482;9.154;2023-11-19T11:24:16;100081.06;;;4.45;100.00
80585;BME280;70137;56.482;9.154;2023-11-19T11:29:40;100078.88;;;4.50;100.00
80585;BME280;70137;56.482;9.154;2023-11-19T11:32:25;100068.59;;;4.50;100.00
80585;BME280;70137;56.482;9.154;2023-11-19T11:35:21;100081.28;;;4.51;100.00
80585;BME280;70137;56.482;9.154;2023-11-19T11:37:55;100070.22;;;4.51;100.00
80585;BME280;70137;56.482;9.154;2023-11-19T11:40:25;100082.09;;;4.52;100.00
80585;BME280;70137;56.482;9.154;2023-11-19T11:42:51;100076.97;;;4.52;100.00
80585;BME280;70137;56.482;9.154;2023-11-19T11:45:18;100082.78;;;4.54;100.00
80585;BME280;70137;56.482;9.154;2023-11-19T11:50:20;100072.38;;;4.55;100.00
80585;BME280;70137;56.482;9.154;2023-11-19T11:58:05;100073.41;;;4.63;100.00
80585;BME280;70137;56.482;9.154;2023-11-19T12:00:37;100078.56;;;4.63;100.00
80585;BME280;70137;56.482;9.154;2023-11-19T12:03:06;100072.59;;;4.62;100.00
80585;BME280;70137;56.482;9.154;2023-11-19T12:05:32;100073.56;;;4.61;100.00
80585;BME280;70137;56.482;9.154;2023-11-19T12:08:04;100076.13;;;4.61;100.00
80585;BME280;70137;56.482;9.154;2023-11-19T12:10:36;100070.84;;;4.63;100.00
80585;BME280;70137;56.482;9.154;2023-11-19T12:13:04;100069.09;;;4.63;100.00
80585;BME280;70137;56.482;9.154;2023-11-19T12:15:32;100068.44;;;4.61;100.00
80585;BME280;70137;56.482;9.154;2023-11-19T12:17:57;100060.72;;;4.61;100.00
80585;BME280;70137;56.482;9.154;2023-11-19T12:20:25;100066.81;;;4.60;100.00
80585;BME280;70137;56.482;9.154;2023-11-19T12:22:52;100064.25;;;4.60;100.00
80585;BME280;70137;56.482;9.154;2023-11-19T12:25:19;100059.91;;;4.60;100.00
80585;BME280;70137;56.482;9.154;2023-11-19T12:27:47;100071.94;;;4.60;100.00
80585;BME280;70137;56.482;9.154;2023-11-19T12:30:17;100072.09;;;4.58;100.00
80585;BME280;70137;56.482;9.154;2023-11-19T12:32:45;100074.66;;;4.58;100.00
80585;BME280;70137;56.482;9.154;2023-11-19T12:35:11;100066.97;;;4.58;100.00
80585;BME280;70137;56.482;9.154;2023-11-19T12:37:40;100067.75;;;4.59;100.00
80585;BME280;70137;56.482;9.154;2023-11-19T12:40:22;100076.13;;;4.61;100.00
80585;BME280;70137;56.482;9.154;2023-11-19T12:42:49;100072.09;;;4.58;100.00
80585;BME280;70137;56.482;9.154;2023-11-19T12:45:15;100067.09;;;4.57;100.00
80585;BME280;70137;56.482;9.154;2023-11-19T12:47:42;100068.06;;;4.56;100.00
80585;BME280;70137;56.482;9.154;2023-11-19T12:50:09;100070.63;;;4.56;100.00
80585;BME280;70137;56.482;9.154;2023-11-19T12:52:36;100067.25;;;4.55;100.00
80585;BME280;70137;56.482;9.154;2023-11-19T12:55:23;100073.34;;;4.54;100.00
80585;BME280;70137;56.482;9.154;2023-11-19T12:57:50;100071.56;;;4.55;100.00
80585;BME280;70137;56.482;9.154;2023-11-19T13:00:20;100068.19;;;4.54;100.00